createdAt,value
2022-12-08T00:00:33.832Z,0.00
2022-12-08T00:01:33.570Z,0.00
2022-12-08T00:02:33.761Z,0.00
2022-12-08T00:03:33.947Z,0.00
2022-12-08T00:04:33.610Z,0.00
2022-12-08T00:05:33.779Z,0.00
2022-12-08T00:06:33.762Z,0.00
2022-12-08T00:07:33.758Z,0.00
2022-12-08T00:08:33.755Z,0.00
2022-12-08T00:09:38.611Z,0.00
2022-12-08T00:10:48.971Z,0.00
2022-12-08T00:11:34.707Z,0.00
2022-12-08T00:12:33.697Z,0.00
2022-12-08T00:13:33.451Z,0.00
2022-12-08T00:14:33.418Z,0.00
2022-12-08T00:15:33.648Z,0.00
2022-12-08T00:16:33.555Z,0.00
2022-12-08T00:17:33.647Z,0.00
2022-12-08T00:18:33.368Z,0.00
2022-12-08T00:19:33.391Z,0.00
2022-12-08T00:20:33.626Z,0.00
2022-12-08T00:21:33.648Z,0.00
2022-12-08T00:22:33.627Z,0.00
2022-12-08T00:23:33.320Z,0.00
2022-12-08T00:24:33.325Z,0.00
2022-12-08T00:25:33.287Z,0.00
2022-12-08T00:26:33.537Z,0.00
2022-12-08T00:27:33.557Z,0.00
2022-12-08T00:28:33.527Z,0.00
2022-12-08T00:29:33.537Z,0.00
2022-12-08T00:30:33.217Z,0.00
2022-12-08T00:31:33.279Z,0.00
2022-12-08T00:32:33.449Z,0.00
2022-12-08T00:33:40.249Z,0.00
2022-12-08T00:34:33.169Z,0.00
2022-12-08T00:35:33.159Z,0.00
2022-12-08T00:36:33.148Z,0.00
2022-12-08T00:37:33.138Z,0.00
2022-12-08T00:38:33.117Z,0.00
2022-12-08T00:39:33.127Z,0.00
2022-12-08T00:40:33.097Z,0.00
2022-12-08T00:41:33.088Z,0.00
2022-12-08T00:42:33.076Z,0.00
2022-12-08T00:43:33.067Z,0.00
2022-12-08T00:44:33.090Z,0.00
2022-12-08T00:45:33.082Z,0.00
2022-12-08T00:46:33.029Z,0.00
2022-12-08T00:47:33.024Z,0.00
2022-12-08T00:48:33.007Z,0.00
2022-12-08T00:49:32.997Z,0.00
2022-12-08T00:50:32.997Z,0.00
2022-12-08T00:51:32.976Z,0.00
2022-12-08T00:52:32.957Z,0.00
2022-12-08T00:53:32.956Z,0.00
2022-12-08T00:54:32.934Z,0.00
2022-12-08T00:55:33.047Z,0.00
2022-12-08T00:56:32.916Z,0.00
2022-12-08T00:57:32.904Z,0.00
2022-12-08T00:58:32.899Z,0.00
2022-12-08T00:59:32.884Z,0.00
2022-12-08T01:00:32.867Z,0.00
2022-12-08T01:01:32.945Z,0.00
2022-12-08T01:02:32.856Z,0.00
2022-12-08T01:03:32.903Z,0.00
2022-12-08T01:04:32.825Z,0.00
2022-12-08T01:05:32.816Z,0.00
2022-12-08T01:06:32.804Z,0.00
2022-12-08T01:07:32.815Z,0.00
2022-12-08T01:08:32.783Z,0.00
2022-12-08T01:09:32.764Z,0.00
2022-12-08T01:10:32.758Z,0.00
2022-12-08T01:11:32.738Z,0.00
2022-12-08T01:12:32.735Z,0.00
2022-12-08T01:13:32.744Z,0.00
2022-12-08T01:14:32.713Z,0.00
2022-12-08T01:15:32.697Z,0.00
2022-12-08T01:16:32.739Z,0.00
2022-12-08T01:17:32.675Z,0.00
2022-12-08T01:18:32.666Z,0.00
2022-12-08T01:19:32.679Z,0.00
2022-12-08T01:20:32.644Z,0.00
2022-12-08T01:21:32.628Z,0.00
2022-12-08T01:22:32.616Z,0.00
2022-12-08T01:23:32.604Z,0.00
2022-12-08T01:24:32.595Z,0.00
2022-12-08T01:25:32.603Z,0.00
2022-12-08T01:26:32.586Z,0.00
2022-12-08T01:27:32.554Z,0.00
2022-12-08T01:28:32.554Z,0.00
2022-12-08T01:29:32.534Z,0.00
2022-12-08T01:30:32.593Z,0.00
2022-12-08T01:31:32.542Z,0.00
2022-12-08T01:32:32.504Z,0.00
2022-12-08T01:33:32.495Z,0.00
2022-12-08T01:34:32.483Z,0.00
2022-12-08T01:35:32.465Z,0.00
2022-12-08T01:36:32.462Z,0.00
2022-12-08T01:37:32.476Z,0.00
2022-12-08T01:38:32.435Z,0.00
2022-12-08T01:39:32.425Z,0.00
2022-12-08T01:40:32.415Z,0.00
2022-12-08T01:41:32.402Z,0.00
2022-12-08T01:42:32.397Z,0.00
2022-12-08T01:43:32.393Z,0.00
2022-12-08T01:44:32.373Z,0.00
2022-12-08T01:45:32.354Z,0.00
2022-12-08T01:46:32.394Z,0.00
2022-12-08T01:47:32.355Z,0.00
2022-12-08T01:48:32.354Z,0.00
2022-12-08T01:49:32.317Z,0.00
2022-12-08T01:50:32.313Z,0.00
2022-12-08T01:51:32.289Z,0.00
2022-12-08T01:52:32.281Z,0.00
2022-12-08T01:53:32.359Z,0.00
2022-12-08T01:54:32.302Z,0.00
2022-12-08T01:55:32.242Z,0.00
2022-12-08T01:56:32.232Z,0.00
2022-12-08T01:57:32.216Z,0.00
2022-12-08T01:58:32.206Z,0.00
2022-12-08T01:59:32.213Z,0.00
2022-12-08T02:00:32.191Z,0.00
2022-12-08T02:01:32.235Z,0.00
2022-12-08T02:02:32.267Z,0.00
2022-12-08T02:03:32.143Z,0.00
2022-12-08T02:04:32.140Z,0.00
2022-12-08T02:05:32.178Z,0.00
2022-12-08T02:06:32.111Z,0.00
2022-12-08T02:07:32.109Z,0.00
2022-12-08T02:08:32.092Z,0.00
2022-12-08T02:09:32.084Z,0.00
2022-12-08T02:10:32.071Z,0.00
2022-12-08T02:11:32.082Z,0.00
2022-12-08T02:12:32.051Z,0.00
2022-12-08T02:13:32.054Z,0.00
2022-12-08T02:14:32.031Z,0.00
2022-12-08T02:15:32.051Z,0.00
2022-12-08T02:16:32.042Z,0.00
2022-12-08T02:17:32.003Z,0.00
2022-12-08T02:18:31.985Z,0.00
2022-12-08T02:19:32.092Z,0.00
2022-12-08T02:20:31.961Z,0.00
2022-12-08T02:21:31.950Z,0.00
2022-12-08T02:22:31.960Z,0.00
2022-12-08T02:23:31.926Z,0.00
2022-12-08T02:24:31.911Z,0.00
2022-12-08T02:25:31.900Z,0.00
2022-12-08T02:26:31.913Z,0.00
2022-12-08T02:27:31.873Z,0.00
2022-12-08T02:28:31.915Z,0.00
2022-12-08T02:29:31.859Z,0.00
2022-12-08T02:30:31.891Z,0.00
2022-12-08T02:31:31.839Z,0.00
2022-12-08T02:32:31.826Z,0.00
2022-12-08T02:33:31.810Z,0.00
2022-12-08T02:34:31.819Z,0.00
2022-12-08T02:35:31.787Z,0.00
2022-12-08T02:36:31.783Z,0.00
2022-12-08T02:37:31.767Z,0.00
2022-12-08T02:38:31.906Z,0.00
2022-12-08T02:39:31.760Z,0.00
2022-12-08T02:40:31.731Z,0.00
2022-12-08T02:41:31.719Z,0.00
2022-12-08T02:42:31.708Z,0.00
2022-12-08T02:43:31.693Z,0.00
2022-12-08T02:44:31.688Z,0.00
2022-12-08T02:45:31.689Z,0.00
2022-12-08T02:46:31.736Z,0.00
2022-12-08T02:47:31.649Z,0.00
2022-12-08T02:48:31.649Z,0.00
2022-12-08T02:49:31.629Z,0.00
2022-12-08T02:50:31.638Z,0.00
2022-12-08T02:51:31.609Z,0.00
2022-12-08T02:52:31.597Z,0.00
2022-12-08T02:53:31.593Z,0.00
2022-12-08T02:54:31.577Z,0.00
2022-12-08T02:55:31.567Z,0.00
2022-12-08T02:56:31.578Z,0.00
2022-12-08T02:57:31.538Z,0.00
2022-12-08T02:58:31.527Z,0.00
2022-12-08T02:59:31.519Z,0.00
2022-12-08T03:00:31.518Z,0.00
2022-12-08T03:01:31.556Z,0.00
2022-12-08T03:02:31.562Z,0.00
2022-12-08T03:03:31.468Z,0.00
2022-12-08T03:04:31.467Z,0.00
2022-12-08T03:05:31.447Z,0.00
2022-12-08T03:06:31.444Z,0.00
2022-12-08T03:07:31.478Z,0.00
2022-12-08T03:08:31.516Z,0.00
2022-12-08T03:09:31.410Z,0.00
2022-12-08T03:10:31.396Z,0.00
2022-12-08T03:11:31.376Z,0.00
2022-12-08T03:12:31.375Z,0.00
2022-12-08T03:13:31.378Z,0.00
2022-12-08T03:14:31.355Z,0.00
2022-12-08T03:15:31.364Z,0.00
2022-12-08T03:16:31.416Z,0.00
2022-12-08T03:17:31.322Z,0.00
2022-12-08T03:18:31.307Z,0.00
2022-12-08T03:19:31.306Z,0.00
2022-12-08T03:20:31.286Z,0.00
2022-12-08T03:21:31.265Z,0.00
2022-12-08T03:22:31.256Z,0.00
2022-12-08T03:23:31.247Z,0.00
2022-12-08T03:24:31.255Z,0.00
2022-12-08T03:25:31.225Z,0.00
2022-12-08T03:26:31.217Z,0.00
2022-12-08T03:27:31.205Z,0.00
2022-12-08T03:28:31.195Z,0.00
2022-12-08T03:29:31.175Z,0.00
2022-12-08T03:30:31.195Z,0.00
2022-12-08T03:31:31.186Z,0.00
2022-12-08T03:32:31.174Z,0.00
2022-12-08T03:33:31.135Z,0.00
2022-12-08T03:34:31.125Z,0.00
2022-12-08T03:35:31.109Z,0.00
2022-12-08T03:36:31.123Z,0.00
2022-12-08T03:37:31.084Z,0.00
2022-12-08T03:38:31.086Z,0.00
2022-12-08T03:39:31.067Z,0.00
2022-12-08T03:40:31.055Z,0.00
2022-12-08T03:41:31.063Z,0.00
2022-12-08T03:42:31.047Z,0.00
2022-12-08T03:43:31.024Z,0.00
2022-12-08T03:44:31.014Z,0.00
2022-12-08T03:45:30.994Z,0.00
2022-12-08T03:47:00.929Z,0.00
2022-12-08T03:48:03.547Z,0.00
2022-12-08T03:49:00.910Z,0.00
2022-12-08T03:50:00.962Z,0.00
2022-12-08T03:51:00.897Z,0.00
2022-12-08T03:52:00.900Z,0.00
2022-12-08T03:53:00.866Z,0.00
2022-12-08T03:54:00.858Z,0.00
2022-12-08T03:55:00.862Z,0.00
2022-12-08T03:56:00.827Z,0.00
2022-12-08T03:57:00.838Z,0.00
2022-12-08T03:58:00.815Z,0.00
2022-12-08T03:59:00.795Z,0.00
2022-12-08T04:00:00.855Z,0.00
2022-12-08T04:01:00.768Z,0.00
2022-12-08T04:02:00.825Z,0.00
2022-12-08T04:03:00.829Z,0.00
2022-12-08T04:04:00.747Z,0.00
2022-12-08T04:05:00.736Z,0.00
2022-12-08T04:06:00.728Z,0.00
2022-12-08T04:07:00.707Z,0.00
2022-12-08T04:08:01.098Z,0.00
2022-12-08T04:09:00.691Z,0.00
2022-12-08T04:10:00.676Z,0.00
2022-12-08T04:11:00.667Z,0.00
2022-12-08T04:12:00.656Z,0.00
2022-12-08T04:13:00.637Z,0.00
2022-12-08T04:14:00.656Z,0.00
2022-12-08T04:15:00.617Z,0.00
2022-12-08T04:16:00.669Z,0.00
2022-12-08T04:17:00.587Z,0.00
2022-12-08T04:18:00.586Z,0.00
2022-12-08T04:19:00.579Z,0.00
2022-12-08T04:20:00.587Z,0.00
2022-12-08T04:21:00.546Z,0.00
2022-12-08T04:22:00.544Z,0.00
2022-12-08T04:23:00.526Z,0.00
2022-12-08T04:24:01.458Z,0.00
2022-12-08T04:25:00.506Z,0.00
2022-12-08T04:26:00.526Z,0.00
2022-12-08T04:27:00.475Z,0.00
2022-12-08T04:28:00.474Z,0.00
2022-12-08T04:29:00.455Z,0.00
2022-12-08T04:30:00.476Z,0.00
2022-12-08T04:31:00.495Z,0.00
2022-12-08T04:32:00.425Z,0.00
2022-12-08T04:33:00.425Z,0.00
2022-12-08T04:34:00.413Z,0.00
2022-12-08T04:35:00.397Z,0.00
2022-12-08T04:36:00.386Z,0.00
2022-12-08T04:37:00.387Z,0.00
2022-12-08T04:38:00.364Z,0.00
2022-12-08T04:39:00.351Z,0.00
2022-12-08T04:40:00.348Z,0.00
2022-12-08T04:41:00.323Z,0.00
2022-12-08T04:42:00.314Z,0.00
2022-12-08T04:43:00.336Z,0.00
2022-12-08T04:44:00.302Z,0.00
2022-12-08T04:45:00.277Z,0.00
2022-12-08T04:46:00.274Z,0.00
2022-12-08T04:47:00.278Z,0.00
2022-12-08T04:48:00.274Z,0.00
2022-12-08T04:49:00.233Z,0.00
2022-12-08T04:50:00.325Z,0.00
2022-12-08T04:51:00.235Z,0.00
2022-12-08T04:52:00.203Z,0.00
2022-12-08T04:53:00.184Z,0.00
2022-12-08T04:54:00.263Z,0.00
2022-12-08T04:55:00.163Z,0.00
2022-12-08T04:56:00.163Z,0.00
2022-12-08T04:57:00.143Z,0.00
2022-12-08T04:58:00.139Z,0.00
2022-12-08T04:59:00.142Z,0.00
2022-12-08T05:00:00.122Z,0.00
2022-12-08T05:01:00.168Z,0.00
2022-12-08T05:02:00.209Z,0.00
2022-12-08T05:03:00.145Z,0.00
2022-12-08T05:04:00.074Z,0.00
2022-12-08T05:05:00.083Z,0.00
2022-12-08T05:06:00.042Z,0.00
2022-12-08T05:07:00.038Z,0.00
2022-12-08T05:08:00.090Z,0.00
2022-12-08T05:09:00.011Z,0.00
2022-12-08T05:10:00.050Z,0.00
2022-12-08T05:10:59.992Z,0.00
2022-12-08T05:11:59.981Z,0.00
2022-12-08T05:12:59.966Z,0.00
2022-12-08T05:13:59.962Z,0.00
2022-12-08T05:14:59.962Z,0.00
2022-12-08T05:15:59.994Z,0.00
2022-12-08T05:17:03.637Z,0.00
2022-12-08T05:18:00.912Z,0.00
2022-12-08T05:18:59.900Z,0.00
2022-12-08T05:19:59.891Z,0.00
2022-12-08T05:20:59.902Z,0.00
2022-12-08T05:21:59.881Z,0.00
2022-12-08T05:22:59.850Z,0.00
2022-12-08T05:23:59.851Z,0.00
2022-12-08T05:24:59.830Z,0.00
2022-12-08T05:25:59.821Z,0.00
2022-12-08T05:26:59.830Z,0.00
2022-12-08T05:28:24.765Z,0.00
2022-12-08T05:29:00.789Z,0.00
2022-12-08T05:29:59.810Z,0.00
2022-12-08T05:30:59.763Z,0.00
2022-12-08T05:31:59.836Z,0.00
2022-12-08T05:32:59.761Z,0.00
2022-12-08T05:34:02.931Z,0.00
2022-12-08T05:34:59.725Z,0.00
2022-12-08T05:35:59.708Z,0.00
2022-12-08T05:36:59.699Z,0.00
2022-12-08T05:37:59.688Z,0.00
2022-12-08T05:38:59.749Z,0.00
2022-12-08T05:39:59.661Z,0.00
2022-12-08T05:40:59.651Z,0.00
2022-12-08T05:41:59.640Z,0.00
2022-12-08T05:42:59.639Z,0.00
2022-12-08T05:43:59.619Z,0.00
2022-12-08T05:44:59.619Z,0.00
2022-12-08T05:45:59.657Z,0.00
2022-12-08T05:46:59.588Z,0.00
2022-12-08T05:47:59.570Z,0.00
2022-12-08T05:48:59.560Z,0.00
2022-12-08T05:49:59.579Z,0.00
2022-12-08T05:50:59.548Z,0.00
2022-12-08T05:51:59.529Z,0.00
2022-12-08T05:52:59.518Z,0.00
2022-12-08T05:53:59.517Z,0.00
2022-12-08T05:54:59.498Z,0.00
2022-12-08T05:55:59.499Z,0.00
2022-12-08T05:56:59.472Z,0.00
2022-12-08T05:58:04.547Z,0.00
2022-12-08T05:59:00.449Z,0.00
2022-12-08T05:59:59.444Z,0.00
2022-12-08T06:00:59.463Z,0.00
2022-12-08T06:01:59.503Z,0.00
2022-12-08T06:02:59.544Z,0.00
2022-12-08T06:03:59.401Z,0.00
2022-12-08T06:04:59.388Z,0.00
2022-12-08T06:05:59.369Z,0.00
2022-12-08T06:06:59.387Z,0.00
2022-12-08T06:07:59.395Z,0.00
2022-12-08T06:08:59.349Z,0.00
2022-12-08T06:09:59.326Z,0.00
2022-12-08T06:10:59.320Z,0.00
2022-12-08T06:11:59.366Z,0.00
2022-12-08T06:12:59.297Z,0.00
2022-12-08T06:13:59.286Z,0.00
2022-12-08T06:14:59.277Z,0.00
2022-12-08T06:15:59.259Z,0.00
2022-12-08T06:16:59.291Z,0.00
2022-12-08T06:17:59.260Z,0.00
2022-12-08T06:18:59.235Z,0.00
2022-12-08T06:19:59.218Z,0.00
2022-12-08T06:20:59.212Z,0.00
2022-12-08T06:21:59.205Z,0.00
2022-12-08T06:22:59.193Z,0.00
2022-12-08T06:23:59.198Z,0.00
2022-12-08T06:24:59.166Z,0.00
2022-12-08T06:25:59.161Z,0.00
2022-12-08T06:26:59.146Z,0.00
2022-12-08T06:27:59.143Z,0.00
2022-12-08T06:28:59.145Z,0.00
2022-12-08T06:29:59.107Z,0.00
2022-12-08T06:30:59.100Z,0.00
2022-12-08T06:31:59.132Z,0.00
2022-12-08T06:32:59.076Z,0.00
2022-12-08T06:33:59.074Z,0.00
2022-12-08T06:34:59.079Z,0.00
2022-12-08T06:35:59.046Z,0.00
2022-12-08T06:36:59.054Z,0.00
2022-12-08T06:37:59.029Z,0.00
2022-12-08T06:38:59.015Z,0.00
2022-12-08T06:39:58.995Z,0.00
2022-12-08T06:40:59.015Z,0.00
2022-12-08T06:41:58.977Z,0.00
2022-12-08T06:42:58.974Z,0.00
2022-12-08T06:43:58.968Z,0.00
2022-12-08T06:44:58.947Z,0.00
2022-12-08T06:45:58.967Z,0.00
2022-12-08T06:46:58.947Z,0.00
2022-12-08T06:47:58.914Z,0.00
2022-12-08T06:48:58.906Z,0.00
2022-12-08T06:49:58.894Z,0.00
2022-12-08T06:50:58.886Z,0.00
2022-12-08T06:51:58.864Z,0.00
2022-12-08T06:53:05.186Z,0.00
2022-12-08T06:53:59.856Z,0.00
2022-12-08T06:54:58.834Z,0.00
2022-12-08T06:55:59.914Z,0.00
2022-12-08T06:56:58.813Z,0.00
2022-12-08T06:57:59.484Z,0.00
2022-12-08T06:59:05.861Z,0.00
2022-12-08T06:59:58.779Z,0.00
2022-12-08T07:00:58.842Z,0.00
2022-12-08T07:01:58.792Z,0.00
2022-12-08T07:02:58.819Z,0.00
2022-12-08T07:03:58.769Z,0.00
2022-12-08T07:04:58.744Z,0.00
2022-12-08T07:06:03.547Z,0.00
2022-12-08T07:06:59.709Z,0.00
2022-12-08T07:07:58.719Z,5.62
2022-12-08T07:08:58.681Z,5.62
2022-12-08T07:09:58.678Z,5.62
2022-12-08T07:10:58.656Z,5.62
2022-12-08T07:11:58.652Z,5.62
2022-12-08T07:12:58.638Z,5.62
2022-12-08T07:13:58.631Z,5.62
2022-12-08T07:14:58.709Z,5.62
2022-12-08T07:15:58.612Z,5.62
2022-12-08T07:16:58.666Z,5.62
2022-12-08T07:18:00.300Z,5.62
2022-12-08T07:18:58.567Z,5.62
2022-12-08T07:19:58.555Z,11.25
2022-12-08T07:20:58.569Z,11.25
2022-12-08T07:21:58.537Z,11.25
2022-12-08T07:22:58.522Z,11.25
2022-12-08T07:23:58.519Z,11.25
2022-12-08T07:24:58.499Z,11.25
2022-12-08T07:25:58.490Z,11.25
2022-12-08T07:26:58.497Z,11.25
2022-12-08T07:27:58.458Z,16.88
2022-12-08T07:28:58.457Z,16.88
2022-12-08T07:29:58.444Z,16.88
2022-12-08T07:30:58.456Z,16.88
2022-12-08T07:31:58.417Z,16.88
2022-12-08T07:32:58.437Z,22.50
2022-12-08T07:33:58.407Z,22.50
2022-12-08T07:34:58.395Z,22.50
2022-12-08T07:35:58.377Z,22.50
2022-12-08T07:36:58.376Z,22.50
2022-12-08T07:37:58.376Z,22.50
2022-12-08T07:38:58.348Z,22.50
2022-12-08T07:39:58.334Z,28.12
2022-12-08T07:40:58.327Z,28.12
2022-12-08T07:41:58.314Z,28.12
2022-12-08T07:42:58.307Z,28.12
2022-12-08T07:43:58.331Z,28.12
2022-12-08T07:44:58.287Z,28.12
2022-12-08T07:45:58.370Z,33.75
2022-12-08T07:46:58.265Z,33.75
2022-12-08T07:47:58.247Z,33.75
2022-12-08T07:48:58.244Z,33.75
2022-12-08T07:49:58.271Z,39.38
2022-12-08T07:50:58.231Z,39.38
2022-12-08T07:51:58.216Z,39.38
2022-12-08T07:52:58.207Z,45.00
2022-12-08T07:53:58.195Z,45.00
2022-12-08T07:54:58.187Z,45.00
2022-12-08T07:55:58.201Z,45.00
2022-12-08T07:56:58.161Z,45.00
2022-12-08T07:57:58.146Z,45.00
2022-12-08T07:58:58.145Z,45.00
2022-12-08T07:59:58.125Z,50.62
2022-12-08T08:00:58.207Z,50.62
2022-12-08T08:02:22.399Z,56.25
2022-12-08T08:02:59.143Z,56.25
2022-12-08T08:03:58.097Z,56.25
2022-12-08T08:04:58.132Z,56.25
2022-12-08T08:05:58.055Z,61.88
2022-12-08T08:06:58.054Z,61.88
2022-12-08T08:07:58.135Z,56.25
2022-12-08T08:08:58.045Z,56.25
2022-12-08T08:09:58.013Z,50.62
2022-12-08T08:10:58.026Z,56.25
2022-12-08T08:12:28.948Z,56.25
2022-12-08T08:12:59.006Z,61.88
2022-12-08T08:13:58.025Z,61.88
2022-12-08T08:14:57.994Z,67.50
2022-12-08T08:15:58.019Z,67.50
2022-12-08T08:16:58.035Z,67.50
2022-12-08T08:17:57.965Z,67.50
2022-12-08T08:18:57.934Z,67.50
2022-12-08T08:19:57.921Z,67.50
2022-12-08T08:20:58.092Z,67.50
2022-12-08T08:21:57.883Z,61.88
2022-12-08T08:22:57.881Z,61.88
2022-12-08T08:23:57.873Z,61.88
2022-12-08T08:24:57.894Z,67.50
2022-12-08T08:25:57.848Z,73.12
2022-12-08T08:26:57.835Z,73.12
2022-12-08T08:27:57.813Z,78.75
2022-12-08T08:28:57.813Z,78.75
2022-12-08T08:29:57.821Z,78.75
2022-12-08T08:30:57.819Z,84.38
2022-12-08T08:31:57.774Z,84.38
2022-12-08T08:32:57.763Z,78.75
2022-12-08T08:33:57.769Z,78.75
2022-12-08T08:34:57.755Z,73.12
2022-12-08T08:35:57.755Z,73.12
2022-12-08T08:36:57.789Z,73.12
2022-12-08T08:37:57.715Z,73.12
2022-12-08T08:38:57.702Z,78.75
2022-12-08T08:39:57.691Z,90.00
2022-12-08T08:40:57.681Z,95.62
2022-12-08T08:41:57.687Z,101.25
2022-12-08T08:42:57.657Z,101.25
2022-12-08T08:43:57.655Z,101.25
2022-12-08T08:44:57.642Z,95.62
2022-12-08T08:45:57.638Z,90.00
2022-12-08T08:46:57.682Z,90.00
2022-12-08T08:47:57.613Z,84.38
2022-12-08T08:48:57.618Z,90.00
2022-12-08T08:49:57.582Z,90.00
2022-12-08T08:50:57.572Z,90.00
2022-12-08T08:51:57.559Z,95.62
2022-12-08T08:52:57.581Z,101.25
2022-12-08T08:53:57.541Z,106.88
2022-12-08T08:54:57.532Z,112.50
2022-12-08T08:55:57.512Z,112.50
2022-12-08T08:56:57.502Z,112.50
2022-12-08T08:57:57.506Z,101.25
2022-12-08T08:58:57.501Z,95.62
2022-12-08T08:59:57.471Z,90.00
2022-12-08T09:00:57.462Z,90.00
2022-12-08T09:01:57.513Z,90.00
2022-12-08T09:02:57.442Z,84.38
2022-12-08T09:03:57.515Z,84.38
2022-12-08T09:04:57.495Z,78.75
2022-12-08T09:05:57.489Z,84.38
2022-12-08T09:06:57.401Z,90.00
2022-12-08T09:07:57.417Z,90.00
2022-12-08T09:08:57.382Z,90.00
2022-12-08T09:10:01.603Z,90.00
2022-12-08T09:10:57.371Z,90.00
2022-12-08T09:11:57.341Z,95.62
2022-12-08T09:12:57.332Z,101.25
2022-12-08T09:13:57.361Z,106.88
2022-12-08T09:14:57.326Z,112.50
2022-12-08T09:15:57.360Z,118.12
2022-12-08T09:16:57.310Z,118.12
2022-12-08T09:17:57.276Z,112.50
2022-12-08T09:18:57.270Z,118.12
2022-12-08T09:19:57.258Z,123.75
2022-12-08T09:20:57.242Z,123.75
2022-12-08T09:21:57.230Z,118.12
2022-12-08T09:22:57.245Z,106.88
2022-12-08T09:23:57.314Z,112.50
2022-12-08T09:24:57.209Z,118.12
2022-12-08T09:25:57.208Z,112.50
2022-12-08T09:26:57.180Z,118.12
2022-12-08T09:27:57.180Z,118.12
2022-12-08T09:28:57.160Z,118.12
2022-12-08T09:29:57.140Z,118.12
2022-12-08T09:30:57.205Z,123.75
2022-12-08T09:31:57.197Z,123.75
2022-12-08T09:32:57.119Z,118.12
2022-12-08T09:33:57.119Z,112.50
2022-12-08T09:34:57.102Z,112.50
2022-12-08T09:35:57.080Z,106.88
2022-12-08T09:36:57.069Z,112.50
2022-12-08T09:37:57.061Z,106.88
2022-12-08T09:38:57.080Z,112.50
2022-12-08T09:39:57.046Z,106.88
2022-12-08T09:40:57.098Z,101.25
2022-12-08T09:41:57.019Z,95.62
2022-12-08T09:42:57.005Z,95.62
2022-12-08T09:43:56.989Z,101.25
2022-12-08T09:44:57.009Z,101.25
2022-12-08T09:45:56.980Z,95.62
2022-12-08T09:46:57.018Z,101.25
2022-12-08T09:47:56.957Z,90.00
2022-12-08T09:48:56.939Z,84.38
2022-12-08T09:49:56.931Z,84.38
2022-12-08T09:50:56.949Z,78.75
2022-12-08T09:51:56.906Z,84.38
2022-12-08T09:52:56.893Z,90.00
2022-12-08T09:53:56.894Z,95.62
2022-12-08T09:54:56.878Z,84.38
2022-12-08T09:55:56.859Z,90.00
2022-12-08T09:56:56.868Z,95.62
2022-12-08T09:57:56.860Z,101.25
2022-12-08T09:58:56.828Z,90.00
2022-12-08T09:59:56.818Z,101.25
2022-12-08T10:00:56.807Z,101.25
2022-12-08T10:01:56.853Z,90.00
2022-12-08T10:02:56.798Z,90.00
2022-12-08T10:03:56.776Z,95.62
2022-12-08T10:04:56.822Z,90.00
2022-12-08T10:05:56.748Z,95.62
2022-12-08T10:06:56.737Z,90.00
2022-12-08T10:07:56.760Z,90.00
2022-12-08T10:08:56.708Z,95.62
2022-12-08T10:09:56.709Z,106.88
2022-12-08T10:10:56.699Z,106.88
2022-12-08T10:11:56.691Z,106.88
2022-12-08T10:12:56.669Z,112.50
2022-12-08T10:13:56.687Z,118.12
2022-12-08T10:14:56.650Z,123.75
2022-12-08T10:15:56.680Z,140.62
2022-12-08T10:16:56.698Z,140.62
2022-12-08T10:17:56.628Z,140.62
2022-12-08T10:18:56.623Z,157.50
2022-12-08T10:19:56.621Z,146.25
2022-12-08T10:20:56.587Z,163.12
2022-12-08T10:21:56.582Z,174.38
2022-12-08T10:22:56.567Z,185.62
2022-12-08T10:23:56.560Z,180.00
2022-12-08T10:24:56.546Z,185.62
2022-12-08T10:25:56.556Z,180.00
2022-12-08T10:26:56.518Z,174.38
2022-12-08T10:27:56.513Z,174.38
2022-12-08T10:28:56.496Z,168.75
2022-12-08T10:29:56.486Z,163.12
2022-12-08T10:30:56.552Z,185.62
2022-12-08T10:31:56.548Z,191.25
2022-12-08T10:32:56.457Z,196.88
2022-12-08T10:33:56.444Z,208.12
2022-12-08T10:34:56.577Z,180.00
2022-12-08T10:35:56.427Z,191.25
2022-12-08T10:36:56.425Z,191.25
2022-12-08T10:37:56.436Z,185.62
2022-12-08T10:38:56.387Z,174.38
2022-12-08T10:39:56.376Z,174.38
2022-12-08T10:40:56.357Z,168.75
2022-12-08T10:41:56.365Z,168.75
2022-12-08T10:42:56.336Z,151.88
2022-12-08T10:43:56.356Z,174.38
2022-12-08T10:44:56.314Z,202.50
2022-12-08T10:45:56.306Z,225.00
2022-12-08T10:46:56.373Z,208.12
2022-12-08T10:47:56.276Z,213.75
2022-12-08T10:48:56.269Z,219.38
2022-12-08T10:49:56.276Z,219.38
2022-12-08T10:50:56.252Z,225.00
2022-12-08T10:51:56.243Z,213.75
2022-12-08T10:52:56.225Z,174.38
2022-12-08T10:53:56.215Z,163.12
2022-12-08T10:54:56.227Z,163.12
2022-12-08T10:55:56.195Z,168.75
2022-12-08T10:56:56.179Z,168.75
2022-12-08T10:57:56.180Z,157.50
2022-12-08T10:58:56.157Z,157.50
2022-12-08T10:59:56.145Z,168.75
2022-12-08T11:00:56.175Z,191.25
2022-12-08T11:01:56.303Z,208.12
2022-12-08T11:02:56.181Z,213.75
2022-12-08T11:03:56.095Z,191.25
2022-12-08T11:04:56.087Z,174.38
2022-12-08T11:05:56.074Z,151.88
2022-12-08T11:06:56.085Z,146.25
2022-12-08T11:07:56.122Z,163.12
2022-12-08T11:08:56.035Z,168.75
2022-12-08T11:09:56.034Z,151.88
2022-12-08T11:10:56.015Z,129.38
2022-12-08T11:11:56.005Z,118.12
2022-12-08T11:12:56.015Z,112.50
2022-12-08T11:13:55.984Z,118.12
2022-12-08T11:14:55.981Z,112.50
2022-12-08T11:15:56.029Z,112.50
2022-12-08T11:16:56.052Z,118.12
2022-12-08T11:17:57.745Z,118.12
2022-12-08T11:18:55.945Z,118.12
2022-12-08T11:19:55.920Z,140.62
2022-12-08T11:20:55.903Z,146.25
2022-12-08T11:21:55.894Z,163.12
2022-12-08T11:22:55.883Z,174.38
2022-12-08T11:23:55.893Z,168.75
2022-12-08T11:24:55.854Z,163.12
2022-12-08T11:25:55.857Z,151.88
2022-12-08T11:26:55.832Z,140.62
2022-12-08T11:27:55.825Z,163.12
2022-12-08T11:28:55.835Z,168.75
2022-12-08T11:29:55.804Z,151.88
2022-12-08T11:30:55.784Z,157.50
2022-12-08T11:31:55.892Z,146.25
2022-12-08T11:32:55.764Z,140.62
2022-12-08T11:33:55.755Z,140.62
2022-12-08T11:34:55.773Z,129.38
2022-12-08T11:35:55.743Z,123.75
2022-12-08T11:36:55.725Z,118.12
2022-12-08T11:38:03.303Z,112.50
2022-12-08T11:38:56.692Z,112.50
2022-12-08T11:39:55.683Z,118.12
2022-12-08T11:40:55.705Z,112.50
2022-12-08T11:41:55.663Z,106.88
2022-12-08T11:42:55.643Z,106.88
2022-12-08T11:43:55.645Z,112.50
2022-12-08T11:44:55.624Z,118.12
2022-12-08T11:45:55.680Z,118.12
2022-12-08T11:46:55.620Z,112.50
2022-12-08T11:47:56.025Z,101.25
2022-12-08T11:48:55.575Z,90.00
2022-12-08T11:49:55.571Z,90.00
2022-12-08T11:50:55.569Z,90.00
2022-12-08T11:51:55.586Z,95.62
2022-12-08T11:52:55.535Z,95.62
2022-12-08T11:53:55.526Z,95.62
2022-12-08T11:54:55.514Z,95.62
2022-12-08T11:55:55.503Z,101.25
2022-12-08T11:56:55.493Z,95.62
2022-12-08T11:57:55.525Z,90.00
2022-12-08T11:58:55.481Z,95.62
2022-12-08T11:59:55.458Z,95.62
2022-12-08T12:00:55.458Z,95.62
2022-12-08T12:01:55.515Z,95.62
2022-12-08T12:02:55.491Z,95.62
2022-12-08T12:03:55.497Z,90.00
2022-12-08T12:04:55.428Z,90.00
2022-12-08T12:06:13.648Z,90.00
2022-12-08T12:06:56.381Z,101.25
2022-12-08T12:07:55.460Z,101.25
2022-12-08T12:08:55.361Z,101.25
2022-12-08T12:09:55.361Z,90.00
2022-12-08T12:10:55.332Z,95.62
2022-12-08T12:11:55.321Z,106.88
2022-12-08T12:12:55.303Z,106.88
2022-12-08T12:13:55.301Z,95.62
2022-12-08T12:14:55.281Z,95.62
2022-12-08T12:15:55.392Z,95.62
2022-12-08T12:16:55.355Z,101.25
2022-12-08T12:17:55.371Z,101.25
2022-12-08T12:18:55.303Z,106.88
2022-12-08T12:19:55.232Z,101.25
2022-12-08T12:20:55.220Z,95.62
2022-12-08T12:21:55.223Z,101.25
2022-12-08T12:22:55.191Z,112.50
2022-12-08T12:23:55.191Z,123.75
2022-12-08T12:24:55.171Z,135.00
2022-12-08T12:25:55.171Z,146.25
2022-12-08T12:26:55.260Z,151.88
2022-12-08T12:27:57.530Z,151.88
2022-12-08T12:28:55.121Z,140.62
2022-12-08T12:29:56.138Z,135.00
2022-12-08T12:30:55.176Z,129.38
2022-12-08T12:31:55.091Z,135.00
2022-12-08T12:32:55.098Z,140.62
2022-12-08T12:33:55.070Z,123.75
2022-12-08T12:34:55.051Z,101.25
2022-12-08T12:35:55.042Z,90.00
2022-12-08T12:36:55.038Z,90.00
2022-12-08T12:37:55.020Z,101.25
2022-12-08T12:38:55.028Z,112.50
2022-12-08T12:39:54.999Z,118.12
2022-12-08T12:40:54.983Z,118.12
2022-12-08T12:41:54.989Z,123.75
2022-12-08T12:42:54.962Z,129.38
2022-12-08T12:43:54.950Z,129.38
2022-12-08T12:44:54.952Z,123.75
2022-12-08T12:45:54.955Z,118.12
2022-12-08T12:46:54.910Z,112.50
2022-12-08T12:47:56.822Z,112.50
2022-12-08T12:48:54.890Z,118.12
2022-12-08T12:49:54.910Z,129.38
2022-12-08T12:50:54.869Z,146.25
2022-12-08T12:51:54.871Z,146.25
2022-12-08T12:52:54.849Z,146.25
2022-12-08T12:53:54.842Z,140.62
2022-12-08T12:54:54.839Z,135.00
2022-12-08T12:55:54.840Z,135.00
2022-12-08T12:56:54.802Z,129.38
2022-12-08T12:57:54.796Z,129.38
2022-12-08T12:58:54.780Z,129.38
2022-12-08T12:59:55.562Z,129.38
2022-12-08T13:00:54.795Z,129.38